ADDS TAF Board (Experimental) INFO Settings
IDs: Format: Expanded Condensed

KORD - Chicago/O'Hare Intl, IL, US

Issued at 1420 UTC 04 May 2015
Updated at: 1603 UTC 04 May 2015
Time1551Z 04/17Z 04/18Z 04/19Z 04/20Z 04/21Z 04/22Z 04/23Z 05/00Z 05/01Z 05/02Z 05/03Z 05/04Z 05/05Z
Type OBS PRVL PRVL PRVL PRVL PRVL PRVL PRVL PRVL PRVL PRVL PRVL PRVL PRVL
VIS 10 6 >6 >6 >6 >6 >6 >6 >6 >6 >6 >6 4 4
CIG 80 100 150 150 35 35 35 35 40 40 40 40 20 20
Cover OVC BKN BKN BKN BKN BKN BKN BKN BKN BKN BKN BKN OVC OVC
FltCat VFR VFR VFR VFR VFR VFR VFR VFR VFR VFR VFR VFR MVFR MVFR
WX -- BR -- -- -- -- -- -- VCSH VCSH VCSH VCSH -SHRA VCTS -SHRA VCTS
WDir 260 350 10 10 40 40 40 40 70 70 70 70 70 70
WSpd 10 9 10 10 11 11 11 11 9 9 9 9 10 10
WGst -- -- -- -- -- -- -- -- -- -- -- -- -- --
R04/22
XWnd 7 7 5 5 -0 -0 -0 -0 -5 -5 -5 -5 -5 -5
HWnd -8 6 9 9 11 11 11 11 8 8 8 8 9 9
R09/27
XWnd -2 9 10 10 8 8 8 8 3 3 3 3 3 3
HWnd -10 -2 2 2 7 7 7 7 8 8 8 8 9 9
R10/28
XWnd -2 9 10 10 8 8 8 8 3 3 3 3 3 3
HWnd -10 -2 2 2 7 7 7 7 8 8 8 8 9 9
R14/32
XWnd -9 5 8 8 11 11 11 11 8 8 8 8 9 9
HWnd -5 -8 -6 -6 -2 -2 -2 -2 3 3 3 3 3 3

NOTE: TEMPO conditions in [brackets]. Keep in mind TEMPO conditions might be better (lower impact) than prevailing conditions.

Raw TAF
KORD 041420Z 0414/0518 28008KT P6SM SCT040 OVC150
  FM041600 35009KT 6SM BR SCT008 BKN100
  FM041800 01010KT P6SM SCT015 BKN150
  FM042000 04011KT P6SM BKN035
  FM050000 07009KT P6SM VCSH BKN040
  FM050400 07010KT 4SM -SHRA VCTS OVC020CB
  PROB30 0506/0510 3SM TSRA OVC010CB
  FM051200 07011KT 6SM -SHRA BR OVC010


Raw METAR
KORD 041551Z 26010KT 10SM SCT021 SCT055 BKN080 OVC200 20/14 A3009 RMK AO2 SLP186 T02000144
KORD 041522Z 27008KT 10SM SCT021 BKN080 OVC200 19/14 A3007 RMK AO2 T01890144
KORD 041504Z 27009KT 10SM BKN021 OVC080 19/14 A3007 RMK AO2 T01890144
KORD 041451Z 27009KT 10SM BKN039 BKN080 OVC160 19/14 A3007 RMK AO2 SLP180 T01890144 51029
KORD 041351Z 27007KT 10SM FEW055 SCT080 BKN160 OVC200 18/13 A3006 RMK AO2 SLP176 T01780133

METAR Board
Radar Display
Forecast Discussion

TAF Board Legend

Potential Impact
Threat None Slight Moderate High
Visibility (sm) ≥5.1 5.1>X≥3 3>X≥1 <1
Ceiling (100 ft) ≥30.1 30.1>X≥10 10>X≥5 <5
Wind Speed (kt) <10 10≤X<20 20≤X<30 ≥30
Wind Gust (kt) <15 15≤X<25 25≤X<35 ≥35
Weather No Wx Reported VCTS,-TS,-FZRA,SN TS,FZRA +TS,+FZRA,+SN